METAR Data
IDs: Format: Raw Decoded Include TAF

Data at: 0112 UTC 01 Mar 2021

METAR for:KIAH (Houston/Bush Intl, TX, US)
Text:KIAH 010053Z 15009KT 10SM SCT026 OVC250 24/20 A2986 RMK AO2 SLP110 T02440200
Temperature: 24.4°C ( 76°F)
Dewpoint: 20.0°C ( 68°F) [RH = 77%]
Pressure (altimeter):29.86 inches Hg (1011.3 mb) [Sea level pressure: 1011.0 mb]
Winds:from the SSE (150 degrees) at 10 MPH (9 knots; 4.6 m/s)
Visibility:10 or more sm (16+ km)
Ceiling:25000 feet AGL
Clouds: scattered clouds at 2600 feet AGL, overcast cloud deck at 25000 feet AGL

METAR for:KHOU (Houston/Hobby Arpt, TX, US)
Text:KHOU 010053Z 16009KT 8SM FEW014 BKN025 BKN045 BKN250 24/21 A2987 RMK AO2 SLP119 T02390206
Temperature: 23.9°C ( 75°F)
Dewpoint: 20.6°C ( 69°F) [RH = 82%]
Pressure (altimeter):29.87 inches Hg (1011.6 mb) [Sea level pressure: 1011.9 mb]
Winds:from the SSE (160 degrees) at 10 MPH (9 knots; 4.6 m/s)
Visibility: 8 sm ( 13 km)
Ceiling:2500 feet AGL
Clouds: few clouds at 1400 feet AGL, broken clouds at 2500 feet AGL, broken clouds at 4500 feet AGL, broken clouds at 25000 feet AGL

METAR for:KGLS (Galveston/Scholes In, TX, US)
Text:KGLS 010109Z AUTO 13006KT 3SM BR OVC003 19/18 A2990 RMK AO2 T01940183
Temperature: 19.4°C ( 67°F)
Dewpoint: 18.3°C ( 65°F) [RH = 93%]
Pressure (altimeter):29.90 inches Hg (1012.6 mb)
Winds:from the SE (130 degrees) at 7 MPH (6 knots; 3.1 m/s)
Visibility: 3 sm ( 5 km)
Ceiling:300 feet AGL
Clouds: overcast cloud deck at 300 feet AGL
Weather:BR (mist)
QC Flag:automated observation with no human augmentation

METAR for:KLVJ (Houston/Pearland Rgn, TX, US)
Text:KLVJ 010053Z AUTO 15008KT 7SM BKN009 OVC016 23/21 A2989 RMK AO2 CIG 007V012 SLP121 T02330206 $
Temperature: 23.3°C ( 74°F)
Dewpoint: 20.6°C ( 69°F) [RH = 85%]
Pressure (altimeter):29.89 inches Hg (1012.3 mb) [Sea level pressure: 1012.1 mb]
Winds:from the SSE (150 degrees) at 9 MPH (8 knots; 4.1 m/s)
Visibility: 7 sm ( 11 km)
Ceiling:900 feet AGL
Clouds: broken clouds at 900 feet AGL, overcast cloud deck at 1600 feet AGL
QC Flag:automated observation with no human augmentation; SOME DATA ABOVE MAY BE INACCURATE!!!"$" is an indication the sensor requires maintenance.

METAR for:KSGR (Houston/Sugar Land R, TX, US)
Text:KSGR 010107Z 15009KT 10SM FEW019 SCT025 OVC037 25/21 A2987 RMK AO2 T02500211
Temperature: 25.0°C ( 77°F)
Dewpoint: 21.1°C ( 70°F) [RH = 79%]
Pressure (altimeter):29.87 inches Hg (1011.6 mb)
Winds:from the SSE (150 degrees) at 10 MPH (9 knots; 4.6 m/s)
Visibility:10 or more sm (16+ km)
Ceiling:3700 feet AGL
Clouds: few clouds at 1900 feet AGL, scattered clouds at 2500 feet AGL, overcast cloud deck at 3700 feet AGL

METAR for:KDWH (Houston/Hooks Mem, TX, US)
Text:KDWH 010053Z AUTO 18006KT 10SM FEW036 24/19 A2986 RMK AO2 SLP109 T02440194
Temperature: 24.4°C ( 76°F)
Dewpoint: 19.4°C ( 67°F) [RH = 74%]
Pressure (altimeter):29.86 inches Hg (1011.3 mb) [Sea level pressure: 1010.9 mb]
Winds:from the S (180 degrees) at 7 MPH (6 knots; 3.1 m/s)
Visibility:10 or more sm (16+ km)
Ceiling:at least 12,000 feet AGL
Clouds: few clouds at 3600 feet AGL
QC Flag:automated observation with no human augmentation

METAR for:KCLL (College Station/East, TX, US)
Text:KCLL 010053Z 15006KT 10SM CLR 24/19 A2984 RMK AO2 SLP099 T02440189
Temperature: 24.4°C ( 76°F)
Dewpoint: 18.9°C ( 66°F) [RH = 71%]
Pressure (altimeter):29.84 inches Hg (1010.6 mb) [Sea level pressure: 1009.9 mb]
Winds:from the SSE (150 degrees) at 7 MPH (6 knots; 3.1 m/s)
Visibility:10 or more sm (16+ km)
Ceiling:at least 12,000 feet AGL
Clouds:sky clear below 12,000 feet AGL

METAR for:KUTS (Huntsville Muni, TX, US)
Text:KUTS 010053Z AUTO 16004KT 10SM FEW047 26/21 A2986 RMK AO2 SLP106 T02560206
Temperature: 25.6°C ( 78°F)
Dewpoint: 20.6°C ( 69°F) [RH = 74%]
Pressure (altimeter):29.86 inches Hg (1011.3 mb) [Sea level pressure: 1010.6 mb]
Winds:from the SSE (160 degrees) at 5 MPH (4 knots; 2.1 m/s)
Visibility:10 or more sm (16+ km)
Ceiling:at least 12,000 feet AGL
Clouds: few clouds at 4700 feet AGL
QC Flag:automated observation with no human augmentation

METAR for:KCXO (Conroe/Executive Arp, TX, US)
Text:KCXO 010053Z AUTO 15009KT 10SM FEW031 OVC041 23/20 A2986 RMK AO2 RAB01E11 SLP109 P0000 T02330200
Temperature: 23.3°C ( 74°F)
Dewpoint: 20.0°C ( 68°F) [RH = 82%]
Pressure (altimeter):29.86 inches Hg (1011.3 mb) [Sea level pressure: 1010.9 mb]
Winds:from the SSE (150 degrees) at 10 MPH (9 knots; 4.6 m/s)
Visibility:10 or more sm (16+ km)
Ceiling:4100 feet AGL
Clouds: few clouds at 3100 feet AGL, overcast cloud deck at 4100 feet AGL
QC Flag:automated observation with no human augmentation

METAR for:KLBX (Angleton/Texas Gulf, TX, US)
Text:KLBX 010053Z AUTO 15008KT 8SM BKN010 OVC030 23/21 A2987 RMK AO2 SLP116 T02280206
Temperature: 22.8°C ( 73°F)
Dewpoint: 20.6°C ( 69°F) [RH = 87%]
Pressure (altimeter):29.87 inches Hg (1011.6 mb) [Sea level pressure: 1011.6 mb]
Winds:from the SSE (150 degrees) at 9 MPH (8 knots; 4.1 m/s)
Visibility: 8 sm ( 13 km)
Ceiling:1000 feet AGL
Clouds: broken clouds at 1000 feet AGL, overcast cloud deck at 3000 feet AGL
QC Flag:automated observation with no human augmentation

METAR for:KPSX (Palacios Muni, TX, US)
Text:KPSX 010052Z AUTO 13009KT 8SM OVC023 22/21 A2984 RMK AO2 SLP105 T02170211
Temperature: 21.7°C ( 71°F)
Dewpoint: 21.1°C ( 70°F) [RH = 96%]
Pressure (altimeter):29.84 inches Hg (1010.6 mb) [Sea level pressure: 1010.5 mb]
Winds:from the SE (130 degrees) at 10 MPH (9 knots; 4.6 m/s)
Visibility: 8 sm ( 13 km)
Ceiling:2300 feet AGL
Clouds: overcast cloud deck at 2300 feet AGL
QC Flag:automated observation with no human augmentation